createdAt,value
2023-02-28T00:01:21.793Z,5.27
2023-02-28T00:03:48.062Z,6.70
2023-02-28T00:06:14.315Z,4.63
2023-02-28T00:08:40.720Z,8.80
2023-02-28T00:11:08.394Z,7.50
2023-02-28T00:13:35.419Z,7.80
2023-02-28T00:16:12.692Z,7.17
2023-02-28T00:18:39.051Z,8.60
2023-02-28T00:21:06.399Z,8.13
2023-02-28T00:23:32.710Z,6.97
2023-02-28T00:25:58.946Z,5.90
2023-02-28T00:28:25.550Z,6.47
2023-02-28T00:30:52.079Z,6.70
2023-02-28T00:33:18.404Z,6.80
2023-02-28T00:35:47.327Z,6.30
2023-02-28T00:38:14.635Z,8.53
2023-02-28T00:40:40.883Z,7.73
2023-02-28T00:43:07.108Z,7.47
2023-02-28T00:45:33.344Z,6.67
2023-02-28T00:47:59.744Z,8.90
2023-02-28T00:50:26.082Z,6.43
2023-02-28T00:52:52.548Z,7.20
2023-02-28T00:55:19.505Z,7.50
2023-02-28T00:57:45.777Z,7.97
2023-02-28T01:00:12.323Z,8.07
2023-02-28T01:02:38.536Z,6.00
2023-02-28T01:05:05.225Z,9.27
2023-02-28T01:07:31.522Z,5.30
2023-02-28T01:09:57.779Z,7.30
2023-02-28T01:12:24.020Z,8.27
2023-02-28T01:14:50.240Z,7.57
2023-02-28T01:17:16.892Z,7.57
2023-02-28T01:19:43.113Z,7.43
2023-02-28T01:22:09.371Z,9.30
2023-02-28T01:24:35.631Z,7.57
2023-02-28T01:27:01.862Z,10.60
2023-02-28T01:29:28.093Z,8.80
2023-02-28T01:31:54.413Z,8.50
2023-02-28T01:34:21.116Z,7.77
2023-02-28T01:36:47.563Z,7.17
2023-02-28T01:39:13.878Z,7.50
2023-02-28T01:41:40.649Z,10.13
2023-02-28T01:44:25.465Z,8.87
2023-02-28T01:46:51.692Z,7.70
2023-02-28T01:49:18.802Z,8.23
2023-02-28T01:51:47.548Z,9.60
2023-02-28T01:54:16.501Z,10.03
2023-02-28T01:56:44.918Z,8.87
2023-02-28T01:59:13.274Z,8.03
2023-02-28T02:01:39.533Z,8.47
2023-02-28T02:04:05.842Z,6.70
2023-02-28T02:06:35.677Z,9.67
2023-02-28T02:09:02.009Z,7.70
2023-02-28T02:11:30.688Z,6.87
2023-02-28T02:13:57.246Z,7.00
2023-02-28T02:16:27.077Z,7.40
2023-02-28T02:18:55.178Z,9.60
2023-02-28T02:21:30.902Z,7.60
2023-02-28T02:24:21.058Z,8.37
2023-02-28T02:26:47.376Z,6.97
2023-02-28T02:29:31.845Z,9.17
2023-02-28T02:32:19.551Z,10.20
2023-02-28T02:35:04.512Z,8.97
2023-02-28T02:37:32.269Z,10.30
2023-02-28T02:40:16.772Z,11.27
2023-02-28T02:42:46.693Z,7.50
2023-02-28T02:45:16.212Z,7.40
2023-02-28T02:47:43.653Z,11.00
2023-02-28T02:50:13.382Z,8.30
2023-02-28T02:52:42.371Z,9.53
2023-02-28T02:55:11.886Z,10.00
2023-02-28T02:57:41.517Z,9.43
2023-02-28T03:00:09.718Z,7.80
2023-02-28T03:02:38.761Z,7.93
2023-02-28T03:05:13.863Z,7.80
2023-02-28T03:07:40.162Z,8.37
2023-02-28T03:10:26.341Z,11.23
2023-02-28T03:12:55.500Z,10.10
2023-02-28T03:15:27.537Z,10.03
2023-02-28T03:18:00.980Z,9.80
2023-02-28T03:20:33.208Z,8.20
2023-02-28T03:23:08.957Z,11.53
2023-02-28T03:25:48.411Z,10.57
2023-02-28T03:28:18.850Z,8.73
2023-02-28T03:30:54.846Z,10.17
2023-02-28T03:33:24.202Z,9.07
2023-02-28T03:36:02.532Z,8.57
2023-02-28T03:38:41.040Z,8.33
2023-02-28T03:41:11.175Z,11.60
2023-02-28T03:43:39.989Z,10.10
2023-02-28T03:46:09.463Z,7.77
2023-02-28T03:48:39.606Z,9.37
2023-02-28T03:51:08.064Z,10.87
2023-02-28T03:53:39.998Z,7.73
2023-02-28T03:56:12.976Z,7.53
2023-02-28T03:58:52.031Z,8.30
2023-02-28T04:01:24.013Z,9.13
2023-02-28T04:03:50.467Z,9.70
2023-02-28T04:06:18.659Z,9.87
2023-02-28T04:08:45.232Z,10.10
2023-02-28T04:11:20.481Z,9.53
2023-02-28T04:13:47.602Z,9.77
2023-02-28T04:16:24.552Z,9.33
2023-02-28T04:19:03.089Z,10.67
2023-02-28T04:21:30.098Z,8.03
2023-02-28T04:23:56.866Z,10.47
2023-02-28T04:26:23.102Z,8.90
2023-02-28T04:28:49.342Z,12.03
2023-02-28T04:31:15.585Z,10.53
2023-02-28T04:33:41.892Z,8.27
2023-02-28T04:36:09.432Z,8.07
2023-02-28T04:38:37.209Z,9.33
2023-02-28T04:41:04.038Z,10.73
2023-02-28T04:43:30.866Z,8.73
2023-02-28T04:45:58.110Z,11.63
2023-02-28T04:48:25.504Z,8.83
2023-02-28T04:50:52.270Z,10.30
2023-02-28T04:53:18.779Z,13.57
2023-02-28T04:55:45.091Z,9.60
2023-02-28T04:58:11.466Z,10.80
2023-02-28T05:00:37.774Z,10.83
2023-02-28T05:03:04.014Z,11.17
2023-02-28T05:05:30.377Z,11.67
2023-02-28T05:07:57.195Z,12.60
2023-02-28T05:10:23.756Z,10.57
2023-02-28T05:12:50.140Z,10.67
2023-02-28T05:15:16.834Z,10.73
2023-02-28T05:17:43.544Z,9.33
2023-02-28T05:20:15.610Z,11.23
2023-02-28T05:22:42.729Z,11.33
2023-02-28T05:25:12.400Z,10.20
2023-02-28T05:27:38.702Z,11.60
2023-02-28T05:30:06.986Z,9.07
2023-02-28T05:32:33.353Z,10.63
2023-02-28T05:34:59.661Z,11.57
2023-02-28T05:37:25.939Z,11.20
2023-02-28T05:39:52.167Z,12.63
2023-02-28T05:42:18.400Z,9.90
2023-02-28T05:44:44.695Z,11.03
2023-02-28T05:47:11.380Z,10.90
2023-02-28T05:49:37.622Z,9.70
2023-02-28T05:52:03.907Z,11.47
2023-02-28T05:54:30.205Z,9.93
2023-02-28T05:56:56.430Z,13.03
2023-02-28T05:59:22.678Z,10.90
2023-02-28T06:01:49.336Z,12.57
2023-02-28T06:04:30.969Z,10.90
2023-02-28T06:06:58.492Z,11.67
2023-02-28T06:09:24.923Z,12.93
2023-02-28T06:11:51.231Z,9.30
2023-02-28T06:14:18.580Z,11.93
2023-02-28T06:16:44.919Z,8.73
2023-02-28T06:19:11.550Z,12.73
2023-02-28T06:21:37.878Z,12.53
2023-02-28T06:24:04.356Z,13.67
2023-02-28T06:26:31.411Z,12.63
2023-02-28T06:28:57.671Z,12.60
2023-02-28T06:31:24.251Z,15.37
2023-02-28T06:33:51.048Z,13.27
2023-02-28T06:36:17.666Z,14.23
2023-02-28T06:38:44.433Z,9.63
2023-02-28T06:41:11.157Z,9.73
2023-02-28T06:43:38.768Z,14.80
2023-02-28T06:46:06.123Z,11.17
2023-02-28T06:48:33.874Z,13.90
2023-02-28T06:51:02.843Z,10.80
2023-02-28T06:53:29.067Z,13.23
2023-02-28T06:55:55.291Z,10.30
2023-02-28T06:58:21.900Z,13.77
2023-02-28T07:00:51.487Z,15.53
2023-02-28T07:03:18.716Z,11.73
2023-02-28T07:05:45.596Z,15.20
2023-02-28T07:08:12.077Z,13.13
2023-02-28T07:10:38.543Z,16.13
2023-02-28T07:13:05.529Z,13.00
2023-02-28T07:15:31.801Z,12.43
2023-02-28T07:17:58.008Z,18.03
2023-02-28T07:20:24.586Z,15.50
2023-02-28T07:22:56.991Z,19.47
2023-02-28T07:25:24.215Z,20.53
2023-02-28T07:27:50.688Z,20.20
2023-02-28T07:30:17.202Z,15.13
2023-02-28T07:32:45.108Z,14.00
2023-02-28T07:35:11.624Z,13.23
2023-02-28T07:37:37.922Z,12.87
2023-02-28T07:40:07.254Z,13.10
2023-02-28T07:42:33.530Z,10.80
2023-02-28T07:44:59.936Z,13.00
2023-02-28T07:47:26.431Z,11.33
2023-02-28T07:49:52.723Z,16.33
2023-02-28T07:52:18.957Z,8.40
2023-02-28T07:54:45.183Z,8.33
2023-02-28T07:57:11.427Z,7.03
2023-02-28T07:59:37.703Z,7.17
2023-02-28T08:02:04.028Z,10.00
2023-02-28T08:04:32.525Z,10.33
2023-02-28T08:06:59.087Z,8.57
2023-02-28T08:09:25.405Z,8.07
2023-02-28T08:11:51.667Z,10.10
2023-02-28T08:14:18.772Z,8.33
2023-02-28T08:16:45.004Z,7.50
2023-02-28T08:19:11.266Z,9.50
2023-02-28T08:21:37.500Z,7.23
2023-02-28T08:24:03.783Z,6.73
2023-02-28T08:26:30.050Z,7.90
2023-02-28T08:28:57.503Z,9.80
2023-02-28T08:31:24.790Z,8.33
2023-02-28T08:33:52.846Z,9.50
2023-02-28T08:36:19.512Z,4.93
2023-02-28T08:38:46.898Z,6.30
2023-02-28T08:41:13.690Z,5.47
2023-02-28T08:43:40.385Z,8.47
2023-02-28T08:46:07.400Z,4.23
2023-02-28T08:48:34.927Z,4.83
2023-02-28T08:51:07.737Z,3.77
2023-02-28T08:53:34.965Z,3.60
2023-02-28T08:56:02.829Z,4.40
2023-02-28T08:58:29.051Z,4.43
2023-02-28T09:00:56.087Z,3.10
2023-02-28T09:03:24.314Z,3.80
2023-02-28T09:05:58.424Z,5.57
2023-02-28T09:08:25.639Z,3.03
2023-02-28T09:10:52.060Z,3.83
2023-02-28T09:13:18.509Z,3.20
2023-02-28T09:15:44.819Z,5.03
2023-02-28T09:18:11.755Z,3.20
2023-02-28T09:20:38.666Z,5.60
2023-02-28T09:23:04.894Z,4.67
2023-02-28T09:25:31.112Z,9.17
2023-02-28T09:27:57.466Z,4.40
2023-02-28T09:30:23.764Z,4.37
2023-02-28T09:32:53.086Z,5.67
2023-02-28T09:35:19.562Z,5.70
2023-02-28T09:37:46.289Z,4.60
2023-02-28T09:40:13.163Z,5.97
2023-02-28T09:42:39.700Z,3.20
2023-02-28T09:45:22.940Z,5.47
2023-02-28T09:47:49.510Z,4.03
2023-02-28T09:50:30.717Z,4.07
2023-02-28T09:52:57.405Z,3.43
2023-02-28T09:55:32.724Z,4.70
2023-02-28T09:58:02.244Z,6.67
2023-02-28T10:00:32.953Z,4.43
2023-02-28T10:03:23.672Z,2.90
2023-02-28T10:05:49.875Z,4.40
2023-02-28T10:08:19.128Z,2.83
2023-02-28T10:10:47.012Z,4.87
2023-02-28T10:13:15.880Z,3.30
2023-02-28T10:15:42.711Z,3.77
2023-02-28T10:18:13.843Z,4.20
2023-02-28T10:20:41.998Z,5.20
2023-02-28T10:23:12.547Z,5.33
2023-02-28T10:25:39.589Z,4.17
2023-02-28T10:28:08.850Z,6.37
2023-02-28T10:30:36.073Z,4.37
2023-02-28T10:33:02.379Z,3.80
2023-02-28T10:35:28.656Z,4.40
2023-02-28T10:37:59.629Z,4.47
2023-02-28T10:40:25.834Z,3.20
2023-02-28T10:43:03.383Z,5.28
2023-02-28T10:45:31.222Z,5.57
2023-02-28T10:47:58.975Z,5.70
2023-02-28T10:50:31.426Z,3.63
2023-02-28T10:53:08.365Z,4.40
2023-02-28T10:55:34.747Z,5.23
2023-02-28T10:58:00.968Z,4.40
2023-02-28T11:00:32.825Z,5.07
2023-02-28T11:02:59.046Z,4.63
2023-02-28T11:05:27.000Z,6.05
2023-02-28T11:07:54.992Z,3.40
2023-02-28T11:10:22.835Z,3.93
2023-02-28T11:12:52.797Z,5.37
2023-02-28T11:15:26.035Z,4.40
2023-02-28T11:18:00.834Z,9.03
2023-02-28T11:20:28.810Z,4.37
2023-02-28T11:22:56.548Z,3.47
2023-02-28T11:25:25.106Z,4.40
2023-02-28T11:27:52.414Z,6.43
2023-02-28T11:30:26.762Z,5.73
2023-02-28T11:32:53.159Z,3.10
2023-02-28T11:35:24.108Z,3.90
2023-02-28T11:37:50.636Z,4.30
2023-02-28T11:40:18.008Z,2.90
2023-02-28T11:43:10.150Z,7.90
2023-02-28T11:45:39.166Z,6.57
2023-02-28T11:48:07.665Z,4.37
2023-02-28T11:50:40.797Z,6.07
2023-02-28T11:53:22.667Z,5.40
2023-02-28T11:55:53.204Z,5.27
2023-02-28T11:58:28.702Z,7.23
2023-02-28T12:00:54.935Z,7.23
2023-02-28T12:03:29.748Z,7.60
2023-02-28T12:06:19.762Z,6.33
2023-02-28T12:09:04.994Z,5.50
2023-02-28T12:11:55.002Z,7.63
2023-02-28T12:14:30.161Z,5.67
2023-02-28T12:17:03.429Z,5.87
2023-02-28T12:19:42.715Z,5.93
2023-02-28T12:22:29.964Z,7.47
2023-02-28T12:24:56.232Z,5.83
2023-02-28T12:27:25.871Z,4.77
2023-02-28T12:29:59.077Z,8.33
2023-02-28T12:32:28.516Z,7.17
2023-02-28T12:34:57.671Z,8.27
2023-02-28T12:37:47.369Z,7.13
2023-02-28T12:40:19.886Z,7.00
2023-02-28T12:42:48.361Z,6.57
2023-02-28T12:45:24.009Z,8.23
2023-02-28T12:47:58.195Z,6.20
2023-02-28T12:50:25.090Z,7.60
2023-02-28T12:52:57.204Z,7.27
2023-02-28T12:55:30.981Z,7.83
2023-02-28T12:58:03.533Z,9.67
2023-02-28T13:00:33.307Z,7.33
2023-02-28T13:03:08.947Z,6.78
2023-02-28T13:05:57.126Z,6.70
2023-02-28T13:08:23.387Z,4.90
2023-02-28T13:10:55.079Z,8.13
2023-02-28T13:13:23.190Z,5.63
2023-02-28T13:16:00.674Z,7.40
2023-02-28T13:18:29.512Z,6.13
2023-02-28T13:20:55.817Z,5.97
2023-02-28T13:23:42.087Z,6.23
2023-02-28T13:26:08.418Z,6.53
2023-02-28T13:28:58.535Z,10.07
2023-02-28T13:31:24.802Z,5.47
2023-02-28T13:34:00.468Z,7.97
2023-02-28T13:36:30.219Z,7.07
2023-02-28T13:39:01.348Z,4.73
2023-02-28T13:41:30.932Z,7.17
2023-02-28T13:44:06.888Z,6.80
2023-02-28T13:46:34.881Z,4.27
2023-02-28T13:49:19.740Z,5.30
2023-02-28T13:51:47.860Z,5.90
2023-02-28T13:54:27.988Z,4.77
2023-02-28T13:57:03.252Z,7.00
2023-02-28T13:59:44.116Z,7.83
2023-02-28T14:02:30.615Z,6.87
2023-02-28T14:05:16.882Z,5.70
2023-02-28T14:07:48.420Z,5.70
2023-02-28T14:10:23.672Z,6.33
2023-02-28T14:12:55.830Z,5.83
2023-02-28T14:15:37.340Z,6.23
2023-02-28T14:18:04.927Z,6.00
2023-02-28T14:20:33.019Z,6.30
2023-02-28T14:23:07.074Z,8.87
2023-02-28T14:25:39.235Z,6.73
2023-02-28T14:28:08.462Z,6.47
2023-02-28T14:30:44.165Z,8.33
2023-02-28T14:33:19.730Z,7.40
2023-02-28T14:35:52.325Z,6.57
2023-02-28T14:38:25.314Z,4.77
2023-02-28T14:40:53.179Z,7.30
2023-02-28T14:43:21.087Z,7.13
2023-02-28T14:45:50.858Z,6.77
2023-02-28T14:48:17.685Z,5.77
2023-02-28T14:50:49.443Z,8.10
2023-02-28T14:53:18.446Z,8.10
2023-02-28T14:55:45.900Z,6.37
2023-02-28T14:58:27.054Z,7.60
2023-02-28T15:00:54.597Z,4.53
2023-02-28T15:03:22.681Z,6.00
2023-02-28T15:05:52.844Z,4.80
2023-02-28T15:08:20.905Z,7.73
2023-02-28T15:10:52.741Z,4.70
2023-02-28T15:13:19.821Z,7.53
2023-02-28T15:16:05.744Z,6.00
2023-02-28T15:18:42.177Z,5.33
2023-02-28T15:21:19.462Z,7.30
2023-02-28T15:23:49.480Z,6.63
2023-02-28T15:26:21.103Z,4.97
2023-02-28T15:28:47.581Z,6.03
2023-02-28T15:31:26.773Z,9.30
2023-02-28T15:33:54.393Z,6.83
2023-02-28T15:36:23.104Z,7.27
2023-02-28T15:38:53.113Z,6.17
2023-02-28T15:41:39.059Z,6.73
2023-02-28T15:44:15.124Z,9.83
2023-02-28T15:46:43.942Z,6.60
2023-02-28T15:49:18.180Z,7.73
2023-02-28T15:51:44.466Z,8.70
2023-02-28T15:54:16.003Z,6.67
2023-02-28T15:56:46.452Z,6.90
2023-02-28T15:59:19.607Z,6.17
2023-02-28T16:01:45.932Z,8.87
2023-02-28T16:04:16.632Z,8.67
2023-02-28T16:06:43.761Z,6.87
2023-02-28T16:09:11.733Z,7.77
2023-02-28T16:11:40.268Z,5.13
2023-02-28T16:14:06.505Z,7.53
2023-02-28T16:16:33.538Z,7.43
2023-02-28T16:18:59.864Z,7.50
2023-02-28T16:21:26.182Z,7.82
2023-02-28T16:23:52.945Z,6.83
2023-02-28T16:26:23.656Z,6.13
2023-02-28T16:28:50.467Z,6.30
2023-02-28T16:31:17.576Z,6.77
2023-02-28T16:33:45.636Z,7.47
2023-02-28T16:36:15.949Z,7.77
2023-02-28T16:38:42.283Z,6.37
2023-02-28T16:41:11.284Z,7.40
2023-02-28T16:43:38.928Z,10.37
2023-02-28T16:46:06.477Z,5.70
2023-02-28T16:48:32.732Z,8.03
2023-02-28T16:50:58.952Z,9.33
2023-02-28T16:53:25.171Z,7.17
2023-02-28T16:55:51.968Z,7.20
2023-02-28T16:58:18.491Z,7.10
2023-02-28T17:00:44.824Z,5.77
2023-02-28T17:03:27.196Z,8.63
2023-02-28T17:05:58.507Z,7.83
2023-02-28T17:08:24.776Z,6.37
2023-02-28T17:10:50.981Z,6.97
2023-02-28T17:13:17.207Z,6.97
2023-02-28T17:15:44.763Z,11.33
2023-02-28T17:18:14.507Z,11.83
2023-02-28T17:20:42.573Z,8.90
2023-02-28T17:23:09.110Z,9.30
2023-02-28T17:25:35.370Z,8.07
2023-02-28T17:28:01.595Z,10.23
2023-02-28T17:30:28.431Z,8.30
2023-02-28T17:32:55.344Z,7.83
2023-02-28T17:35:22.210Z,10.27
2023-02-28T17:37:48.588Z,9.50
2023-02-28T17:40:20.260Z,8.70
2023-02-28T17:42:46.984Z,8.17
2023-02-28T17:45:13.986Z,10.70
2023-02-28T17:47:40.516Z,8.63
2023-02-28T17:50:06.937Z,8.90
2023-02-28T17:52:37.552Z,13.03
2023-02-28T17:55:05.177Z,8.33
2023-02-28T17:57:31.474Z,9.50
2023-02-28T17:59:58.026Z,8.90
2023-02-28T18:02:24.369Z,11.10
2023-02-28T18:04:50.668Z,11.40
2023-02-28T18:07:16.900Z,15.10
2023-02-28T18:09:43.785Z,12.30
2023-02-28T18:12:09.997Z,16.07
2023-02-28T18:14:36.304Z,12.83
2023-02-28T18:17:02.534Z,12.30
2023-02-28T18:19:28.761Z,14.90
2023-02-28T18:21:55.101Z,12.13
2023-02-28T18:24:22.809Z,12.33
2023-02-28T18:26:49.034Z,10.10
2023-02-28T18:29:17.612Z,13.47
2023-02-28T18:31:43.905Z,14.33
2023-02-28T18:34:10.220Z,12.30
2023-02-28T18:36:36.713Z,10.30
2023-02-28T18:39:03.189Z,14.97
2023-02-28T18:41:29.521Z,15.27
2023-02-28T18:43:55.734Z,14.80
2023-02-28T18:46:22.102Z,17.17
2023-02-28T18:48:48.423Z,10.73
2023-02-28T18:51:15.988Z,14.60
2023-02-28T18:53:43.065Z,13.53
2023-02-28T18:56:10.947Z,15.33
2023-02-28T18:58:37.162Z,15.03
2023-02-28T19:01:04.667Z,12.07
2023-02-28T19:03:30.946Z,15.20
2023-02-28T19:05:58.214Z,16.13
2023-02-28T19:08:25.087Z,14.93
2023-02-28T19:10:51.381Z,12.87
2023-02-28T19:13:18.218Z,15.53
2023-02-28T19:15:44.574Z,17.20
2023-02-28T19:18:10.810Z,16.97
2023-02-28T19:20:37.037Z,15.57
2023-02-28T19:23:03.378Z,18.57
2023-02-28T19:25:29.723Z,19.87
2023-02-28T19:27:56.674Z,14.23
2023-02-28T19:30:23.651Z,13.30
2023-02-28T19:32:50.170Z,14.07
2023-02-28T19:35:16.438Z,15.90
2023-02-28T19:37:42.819Z,16.00
2023-02-28T19:40:10.978Z,16.97
2023-02-28T19:42:37.292Z,18.23
2023-02-28T19:45:04.284Z,15.23
2023-02-28T19:47:33.515Z,21.07
2023-02-28T19:49:59.738Z,18.73
2023-02-28T19:52:26.091Z,14.63
2023-02-28T19:54:52.307Z,16.40
2023-02-28T19:57:18.531Z,17.63
2023-02-28T19:59:44.811Z,17.77
2023-02-28T20:02:15.255Z,20.27
2023-02-28T20:04:41.613Z,18.10
2023-02-28T20:07:07.896Z,20.87
2023-02-28T20:09:34.251Z,19.13
2023-02-28T20:12:01.607Z,18.87
2023-02-28T20:14:28.004Z,16.70
2023-02-28T20:16:56.495Z,19.07
2023-02-28T20:19:23.417Z,17.73
2023-02-28T20:21:49.625Z,17.07
2023-02-28T20:24:16.438Z,29.73
2023-02-28T20:26:42.675Z,21.50
2023-02-28T20:29:09.001Z,18.93
2023-02-28T20:31:37.525Z,18.60
2023-02-28T20:34:04.466Z,18.70
2023-02-28T20:36:30.827Z,18.67
2023-02-28T20:38:59.906Z,22.27
2023-02-28T20:41:26.586Z,17.80
2023-02-28T20:43:58.213Z,18.17
2023-02-28T20:46:28.277Z,22.57
2023-02-28T20:48:54.691Z,21.47
2023-02-28T20:51:21.348Z,19.23
2023-02-28T20:53:47.654Z,20.57
2023-02-28T20:56:16.358Z,22.53
2023-02-28T20:58:43.737Z,18.13
2023-02-28T21:01:17.528Z,19.40
2023-02-28T21:03:44.752Z,19.10
2023-02-28T21:06:11.376Z,23.97
2023-02-28T21:08:38.213Z,21.63
2023-02-28T21:11:08.817Z,21.80
2023-02-28T21:13:35.178Z,21.63
2023-02-28T21:16:05.541Z,24.90
2023-02-28T21:18:32.896Z,22.23
2023-02-28T21:21:06.928Z,19.67
2023-02-28T21:23:33.390Z,18.67
2023-02-28T21:26:06.770Z,25.73
2023-02-28T21:28:33.458Z,20.83
2023-02-28T21:31:04.060Z,22.97
2023-02-28T21:33:30.481Z,22.63
2023-02-28T21:36:00.237Z,17.40
2023-02-28T21:38:26.662Z,21.80
2023-02-28T21:40:52.906Z,22.03
2023-02-28T21:43:19.129Z,22.50
2023-02-28T21:45:45.352Z,20.10
2023-02-28T21:48:11.642Z,24.90
2023-02-28T21:50:37.887Z,18.37
2023-02-28T21:53:04.108Z,18.53
2023-02-28T21:55:30.316Z,22.53
2023-02-28T21:57:56.590Z,24.77
2023-02-28T22:00:22.913Z,18.20
2023-02-28T22:02:49.219Z,19.33
2023-02-28T22:05:15.523Z,18.63
2023-02-28T22:07:43.954Z,25.80
2023-02-28T22:10:10.413Z,20.33
2023-02-28T22:12:36.657Z,18.57
2023-02-28T22:15:02.917Z,22.80
2023-02-28T22:17:29.150Z,16.73
2023-02-28T22:19:55.410Z,19.50
2023-02-28T22:22:21.641Z,19.77
2023-02-28T22:24:47.921Z,21.97
2023-02-28T22:27:14.139Z,22.90
2023-02-28T22:29:40.386Z,21.97
2023-02-28T22:32:08.279Z,21.50
2023-02-28T22:34:34.558Z,20.47
2023-02-28T22:37:00.776Z,19.87
2023-02-28T22:39:27.057Z,17.27
2023-02-28T22:41:57.226Z,17.47
2023-02-28T22:44:23.559Z,19.00
2023-02-28T22:46:53.981Z,18.73
2023-02-28T22:49:20.785Z,18.60
2023-02-28T22:51:46.976Z,21.57
2023-02-28T22:54:13.226Z,19.83
2023-02-28T22:56:39.468Z,20.43
2023-02-28T22:59:05.840Z,18.33
2023-02-28T23:01:33.701Z,21.70
2023-02-28T23:04:00.478Z,21.43
2023-02-28T23:06:31.320Z,20.67
2023-02-28T23:08:59.822Z,20.37
2023-02-28T23:11:27.794Z,20.67
2023-02-28T23:14:00.278Z,19.60
2023-02-28T23:16:37.553Z,17.00
2023-02-28T23:19:08.646Z,18.33
2023-02-28T23:21:35.322Z,24.83
2023-02-28T23:24:02.822Z,21.23
2023-02-28T23:26:29.801Z,16.57
2023-02-28T23:28:56.542Z,20.53
2023-02-28T23:31:23.816Z,22.53
2023-02-28T23:33:50.914Z,24.67
2023-02-28T23:36:17.300Z,19.33
2023-02-28T23:38:46.554Z,21.80
2023-02-28T23:41:13.319Z,21.37
2023-02-28T23:43:40.641Z,20.83
2023-02-28T23:46:07.695Z,19.80
2023-02-28T23:48:34.095Z,23.60
2023-02-28T23:51:01.206Z,18.53
2023-02-28T23:53:29.840Z,18.97
2023-02-28T23:55:56.343Z,24.10
2023-02-28T23:58:22.572Z,20.47
